createdAt,value
2019-05-07T00:00:08.810Z,70.00
2019-05-07T00:02:42.812Z,69.20
2019-05-07T00:05:15.815Z,69.10
2019-05-07T00:07:49.365Z,69.00
2019-05-07T00:10:21.809Z,69.00
2019-05-07T00:12:55.177Z,69.20
2019-05-07T00:15:27.175Z,69.00
2019-05-07T00:17:59.346Z,68.80
2019-05-07T00:20:32.713Z,68.80
2019-05-07T00:23:05.226Z,68.90
2019-05-07T00:25:37.242Z,68.80
2019-05-07T00:28:09.416Z,68.80
2019-05-07T00:30:42.483Z,68.80
2019-05-07T00:33:14.823Z,68.40
2019-05-07T00:35:48.035Z,68.10
2019-05-07T00:38:22.409Z,68.20
2019-05-07T00:40:55.829Z,68.00
2019-05-07T00:43:29.469Z,67.80
2019-05-07T00:46:02.787Z,67.20
2019-05-07T00:48:34.844Z,66.90
2019-05-07T00:51:08.928Z,67.30
2019-05-07T00:53:42.397Z,67.40
2019-05-07T00:56:15.040Z,67.10
2019-05-07T00:58:52.710Z,67.00
2019-05-07T01:01:26.947Z,66.80
2019-05-07T01:04:02.455Z,66.50
2019-05-07T01:06:39.648Z,66.80
2019-05-07T01:09:12.309Z,66.50
2019-05-07T01:11:45.323Z,66.40
2019-05-07T01:14:18.667Z,66.50
2019-05-07T01:16:52.961Z,66.40
2019-05-07T01:19:28.050Z,66.40
2019-05-07T01:22:03.024Z,65.90
2019-05-07T01:24:33.557Z,65.20
2019-05-07T01:27:08.860Z,65.50
2019-05-07T01:29:46.212Z,65.50
2019-05-07T01:32:22.092Z,65.50
2019-05-07T01:34:54.565Z,65.50
2019-05-07T01:37:26.710Z,65.50
2019-05-07T01:40:00.010Z,65.50
2019-05-07T01:42:36.744Z,65.50
2019-05-07T01:45:12.928Z,65.10
2019-05-07T01:47:45.823Z,65.00
2019-05-07T01:50:18.534Z,64.70
2019-05-07T01:52:52.267Z,64.60
2019-05-07T01:55:26.535Z,64.40
2019-05-07T01:58:04.548Z,64.10
2019-05-07T02:00:35.507Z,64.10
2019-05-07T02:03:09.304Z,63.90
2019-05-07T02:05:42.592Z,64.20
2019-05-07T02:08:16.888Z,63.80
2019-05-07T02:10:52.309Z,64.10
2019-05-07T02:13:24.854Z,64.10
2019-05-07T02:16:00.821Z,63.50
2019-05-07T02:18:32.567Z,63.20
2019-05-07T02:21:05.569Z,63.10
2019-05-07T02:23:42.566Z,62.70
2019-05-07T02:26:14.174Z,63.10
2019-05-07T02:28:46.479Z,63.20
2019-05-07T02:31:23.217Z,62.80
2019-05-07T02:33:55.290Z,62.60
2019-05-07T02:36:27.487Z,62.70
2019-05-07T02:39:03.634Z,62.20
2019-05-07T02:41:36.219Z,62.50
2019-05-07T02:44:09.934Z,62.20
2019-05-07T02:46:43.760Z,62.20
2019-05-07T02:49:17.110Z,62.30
2019-05-07T02:51:53.130Z,61.60
2019-05-07T02:54:25.463Z,61.80
2019-05-07T02:56:58.478Z,61.40
2019-05-07T02:59:33.648Z,61.30
2019-05-07T03:02:05.251Z,61.40
2019-05-07T03:04:57.916Z,61.30
2019-05-07T03:07:33.585Z,61.10
2019-05-07T03:10:05.816Z,60.70
2019-05-07T03:12:42.742Z,60.60
2019-05-07T03:15:15.516Z,60.10
2019-05-07T03:17:55.147Z,60.20
2019-05-07T03:20:23.421Z,60.10
2019-05-07T03:22:56.954Z,59.60
2019-05-07T03:25:33.542Z,59.50
2019-05-07T03:28:04.576Z,59.00
2019-05-07T03:30:57.390Z,59.80
2019-05-07T03:33:36.148Z,59.10
2019-05-07T03:36:08.032Z,59.00
2019-05-07T03:38:40.483Z,57.90
2019-05-07T03:41:16.032Z,58.10
2019-05-07T03:43:48.147Z,57.20
2019-05-07T03:46:23.512Z,56.70
2019-05-07T03:48:54.823Z,56.70
2019-05-07T03:51:26.871Z,56.80
2019-05-07T03:53:59.034Z,57.10
2019-05-07T03:56:33.021Z,56.30
2019-05-07T03:59:05.293Z,56.40
2019-05-07T04:01:56.563Z,56.10
2019-05-07T04:04:28.820Z,55.70
2019-05-07T04:07:03.364Z,55.90
2019-05-07T04:09:35.088Z,55.60
2019-05-07T04:12:07.416Z,54.70
2019-05-07T04:14:43.262Z,54.80
2019-05-07T04:17:22.312Z,54.10
2019-05-07T04:19:48.777Z,54.20
2019-05-07T04:22:26.439Z,53.80
2019-05-07T04:25:04.454Z,53.70
2019-05-07T04:27:37.051Z,53.70
2019-05-07T04:30:12.852Z,53.30
2019-05-07T04:32:47.131Z,52.50
2019-05-07T04:35:43.091Z,52.90
2019-05-07T04:38:14.018Z,53.00
2019-05-07T04:40:46.753Z,52.50
2019-05-07T04:43:18.875Z,51.90
2019-05-07T04:45:53.713Z,52.00
2019-05-07T04:48:24.980Z,51.90
2019-05-07T04:50:58.581Z,51.40
2019-05-07T04:53:32.815Z,50.80
2019-05-07T04:56:04.463Z,50.30
2019-05-07T04:58:36.670Z,49.40
2019-05-07T05:04:20.165Z,49.60
2019-05-07T05:06:33.978Z,49.70
2019-05-07T05:09:07.370Z,49.80
2019-05-07T05:11:39.481Z,49.30
2019-05-07T05:14:13.666Z,49.40
2019-05-07T05:16:47.064Z,49.30
2019-05-07T05:19:19.938Z,48.60
2019-05-07T05:21:53.281Z,48.70
2019-05-07T05:24:28.196Z,47.10
2019-05-07T05:27:02.441Z,47.40
2019-05-07T05:29:35.833Z,47.50
2019-05-07T05:32:07.901Z,47.00
2019-05-07T05:34:39.901Z,45.90
2019-05-07T05:37:12.151Z,45.60
2019-05-07T05:40:02.492Z,45.60
2019-05-07T05:42:42.894Z,47.20
2019-05-07T05:45:18.568Z,45.50
2019-05-07T05:48:03.961Z,45.40
2019-05-07T05:50:27.496Z,45.10
2019-05-07T05:53:02.700Z,45.00
2019-05-07T05:55:35.287Z,45.10
2019-05-07T05:58:08.527Z,44.70
2019-05-07T06:00:42.359Z,44.80
2019-05-07T06:03:15.892Z,44.80
2019-05-07T06:05:49.633Z,44.40
2019-05-07T06:08:24.028Z,43.70
2019-05-07T06:11:16.637Z,44.70
2019-05-07T06:13:52.646Z,44.60
2019-05-07T06:16:25.950Z,44.70
2019-05-07T06:19:01.989Z,44.40
2019-05-07T06:21:35.392Z,44.30
2019-05-07T06:24:09.421Z,44.00
2019-05-07T06:26:44.935Z,44.40
2019-05-07T06:29:20.022Z,44.40
2019-05-07T06:31:56.061Z,43.90
2019-05-07T06:34:29.145Z,43.70
2019-05-07T06:37:02.300Z,43.40
2019-05-07T06:39:36.464Z,43.70
2019-05-07T06:42:12.517Z,43.80
2019-05-07T06:44:44.143Z,43.70
2019-05-07T06:47:16.080Z,43.60
2019-05-07T06:49:48.223Z,43.60
2019-05-07T06:52:22.464Z,43.70
2019-05-07T06:55:14.266Z,43.20
2019-05-07T06:57:46.547Z,43.10
2019-05-07T07:00:19.859Z,43.20
2019-05-07T07:02:53.927Z,43.70
2019-05-07T07:05:27.541Z,43.20
2019-05-07T07:08:02.333Z,42.90
2019-05-07T07:10:37.050Z,44.70
2019-05-07T07:13:11.862Z,45.50
2019-05-07T07:15:43.092Z,46.50
2019-05-07T07:18:15.314Z,47.30
2019-05-07T07:20:48.674Z,47.90
2019-05-07T07:23:22.698Z,48.60
2019-05-07T07:25:55.039Z,49.40
2019-05-07T07:28:27.246Z,49.90
2019-05-07T07:31:02.349Z,49.60
2019-05-07T07:33:35.929Z,49.90
2019-05-07T07:36:08.629Z,53.10
2019-05-07T07:38:42.074Z,56.10
2019-05-07T07:41:16.240Z,56.90
2019-05-07T07:43:48.411Z,58.40
2019-05-07T07:46:22.160Z,60.60
2019-05-07T07:49:07.197Z,63.20
2019-05-07T07:51:40.647Z,64.10
2019-05-07T07:54:02.636Z,64.80
2019-05-07T07:56:49.117Z,65.20
2019-05-07T07:59:12.482Z,66.00
2019-05-07T08:01:45.890Z,66.40
2019-05-07T08:04:18.340Z,68.40
2019-05-07T08:06:52.258Z,71.40
2019-05-07T08:09:25.904Z,69.50
2019-05-07T08:11:58.188Z,71.00
2019-05-07T08:14:33.175Z,70.60
2019-05-07T08:17:06.660Z,70.60
2019-05-07T08:19:39.387Z,71.20
2019-05-07T08:22:12.429Z,70.40
2019-05-07T08:24:49.294Z,70.50
2019-05-07T08:27:22.217Z,70.20
2019-05-07T08:29:54.822Z,69.90
2019-05-07T08:32:28.464Z,70.10
2019-05-07T08:35:02.471Z,69.20
2019-05-07T08:37:34.415Z,68.80
2019-05-07T08:40:07.975Z,68.20
2019-05-07T08:42:41.877Z,68.90
2019-05-07T08:45:16.166Z,69.20
2019-05-07T08:47:49.857Z,68.70
2019-05-07T08:50:22.224Z,69.10
2019-05-07T08:52:54.521Z,69.10
2019-05-07T08:55:46.032Z,68.40
2019-05-07T08:58:19.083Z,69.80
2019-05-07T09:00:52.288Z,69.00
2019-05-07T09:03:35.434Z,66.60
2019-05-07T09:06:07.882Z,70.10
2019-05-07T09:08:40.145Z,67.50
2019-05-07T09:11:23.073Z,68.40
2019-05-07T09:13:55.430Z,69.60
2019-05-07T09:16:46.632Z,69.10
2019-05-07T09:19:25.314Z,68.70
2019-05-07T09:22:16.548Z,69.30
2019-05-07T09:24:49.055Z,69.20
2019-05-07T09:27:25.645Z,68.40
2019-05-07T09:29:59.555Z,68.70
2019-05-07T09:32:52.357Z,68.10
2019-05-07T09:35:29.651Z,67.80
2019-05-07T09:38:03.197Z,68.00
2019-05-07T09:40:35.880Z,67.80
2019-05-07T09:43:08.571Z,68.20
2019-05-07T09:45:42.045Z,68.30
2019-05-07T09:48:14.476Z,68.00
2019-05-07T09:50:56.572Z,68.10
2019-05-07T09:53:32.015Z,67.90
2019-05-07T09:56:04.002Z,67.90
2019-05-07T09:58:39.206Z,67.70
2019-05-07T10:01:12.514Z,67.50
2019-05-07T10:03:44.852Z,67.00
2019-05-07T10:06:17.069Z,67.60
2019-05-07T10:08:49.207Z,66.90
2019-05-07T10:11:23.918Z,68.00
2019-05-07T10:13:57.843Z,68.20
2019-05-07T10:16:32.005Z,68.30
2019-05-07T10:19:04.332Z,68.00
2019-05-07T10:21:42.541Z,66.40
2019-05-07T10:24:15.038Z,66.50
2019-05-07T10:26:47.161Z,65.80
2019-05-07T10:29:19.329Z,65.90
2019-05-07T10:31:52.855Z,66.00
2019-05-07T10:34:25.211Z,66.80
2019-05-07T10:36:58.960Z,66.30
2019-05-07T10:39:32.525Z,67.10
2019-05-07T10:42:04.880Z,67.00
2019-05-07T10:44:38.515Z,67.00
2019-05-07T10:49:59.274Z,67.30
2019-05-07T10:52:52.824Z,66.80
2019-05-07T10:55:25.693Z,66.40
2019-05-07T10:57:58.003Z,66.90
2019-05-07T11:00:30.518Z,67.00
2019-05-07T11:03:02.613Z,67.70
2019-05-07T11:05:34.725Z,67.70
2019-05-07T11:08:27.475Z,67.80
2019-05-07T11:10:59.744Z,68.10
2019-05-07T11:13:53.911Z,68.30
2019-05-07T11:16:26.360Z,68.60
2019-05-07T11:18:58.384Z,69.20
2019-05-07T11:21:33.246Z,69.20
2019-05-07T11:24:05.346Z,69.40
2019-05-07T11:26:37.664Z,69.60
2019-05-07T11:29:09.761Z,69.30
2019-05-07T11:31:42.496Z,69.60
2019-05-07T11:34:15.061Z,68.90
2019-05-07T11:36:47.504Z,68.40
2019-05-07T11:39:22.565Z,69.60
2019-05-07T11:41:55.628Z,70.80
2019-05-07T11:44:31.945Z,70.40
2019-05-07T11:47:04.750Z,70.20
2019-05-07T11:49:38.485Z,70.10
2019-05-07T11:52:12.309Z,70.10
2019-05-07T11:54:46.326Z,69.70
2019-05-07T11:57:18.581Z,69.80
2019-05-07T11:59:51.634Z,70.30
2019-05-07T12:02:24.995Z,69.40
2019-05-07T12:04:57.015Z,69.80
2019-05-07T12:07:32.624Z,69.90
2019-05-07T12:10:05.121Z,70.60
2019-05-07T12:12:38.688Z,71.30
2019-05-07T12:15:12.465Z,71.80
2019-05-07T12:17:44.603Z,71.70
2019-05-07T12:20:18.595Z,71.90
2019-05-07T12:22:52.122Z,71.70
2019-05-07T12:25:25.861Z,71.30
2019-05-07T12:27:58.207Z,71.00
2019-05-07T12:30:32.677Z,71.00
2019-05-07T12:33:06.155Z,70.70
2019-05-07T12:35:41.916Z,70.60
2019-05-07T12:38:14.797Z,70.80
2019-05-07T12:40:48.855Z,70.70
2019-05-07T12:43:20.932Z,70.70
2019-05-07T12:45:52.972Z,70.80
2019-05-07T12:48:25.550Z,71.10
2019-05-07T12:50:57.564Z,71.30
2019-05-07T12:53:32.207Z,71.40
2019-05-07T12:56:06.292Z,71.70
2019-05-07T12:58:38.348Z,71.80
2019-05-07T13:01:12.108Z,72.10
2019-05-07T13:03:45.608Z,72.20
2019-05-07T13:06:18.118Z,72.20
2019-05-07T13:08:52.079Z,72.80
2019-05-07T13:11:24.301Z,72.10
2019-05-07T13:13:56.570Z,72.10
2019-05-07T13:16:32.254Z,72.10
2019-05-07T13:19:04.915Z,72.00
2019-05-07T13:21:49.069Z,71.90
2019-05-07T13:24:14.911Z,71.90
2019-05-07T13:26:47.261Z,71.80
2019-05-07T13:29:19.260Z,71.60
2019-05-07T13:31:54.396Z,71.50
2019-05-07T13:34:27.185Z,71.50
2019-05-07T13:37:10.016Z,71.70
2019-05-07T13:39:44.448Z,71.60
2019-05-07T13:42:17.954Z,71.70
2019-05-07T13:44:52.123Z,71.60
2019-05-07T13:47:26.278Z,71.70
2019-05-07T13:49:58.923Z,71.60
2019-05-07T13:52:32.947Z,71.80
2019-05-07T13:55:06.768Z,71.80
2019-05-07T13:57:39.033Z,71.80
2019-05-07T14:00:17.439Z,71.40
2019-05-07T14:02:49.675Z,71.20
2019-05-07T14:05:21.844Z,71.60
2019-05-07T14:07:54.100Z,71.70
2019-05-07T14:10:26.163Z,71.00
2019-05-07T14:13:11.052Z,71.90
2019-05-07T14:15:37.316Z,71.70
2019-05-07T14:18:11.572Z,71.60
2019-05-07T14:20:44.584Z,71.60
2019-05-07T14:23:17.835Z,71.50
2019-05-07T14:25:49.623Z,71.50
2019-05-07T14:28:42.265Z,71.30
2019-05-07T14:31:14.648Z,71.20
2019-05-07T14:33:46.379Z,71.10
2019-05-07T14:36:19.949Z,71.00
2019-05-07T14:38:53.770Z,70.50
2019-05-07T14:41:26.475Z,70.50
2019-05-07T14:44:00.309Z,70.80
2019-05-07T14:46:44.390Z,71.80
2019-05-07T14:49:06.779Z,71.30
2019-05-07T14:51:38.844Z,71.40
2019-05-07T14:54:12.320Z,71.10
2019-05-07T14:56:44.603Z,70.90
2019-05-07T14:59:17.347Z,71.00
2019-05-07T15:01:52.094Z,71.00
2019-05-07T15:04:23.627Z,71.00
2019-05-07T15:06:55.861Z,71.00
2019-05-07T15:09:28.356Z,71.10
2019-05-07T15:12:02.210Z,70.80
2019-05-07T15:14:34.975Z,70.80
2019-05-07T15:17:08.494Z,71.30
2019-05-07T15:19:42.741Z,71.40
2019-05-07T15:22:16.964Z,71.60
2019-05-07T15:24:49.819Z,71.90
2019-05-07T15:27:22.929Z,72.00
2019-05-07T15:29:55.638Z,72.10
2019-05-07T15:32:28.542Z,72.10
2019-05-07T15:35:02.239Z,72.30
2019-05-07T15:37:34.692Z,72.50
2019-05-07T15:40:09.306Z,72.40
2019-05-07T15:42:42.170Z,72.50
2019-05-07T15:45:14.833Z,72.30
2019-05-07T15:47:48.069Z,72.50
2019-05-07T15:50:20.331Z,72.40
2019-05-07T15:52:58.433Z,72.10
2019-05-07T15:55:28.070Z,72.20
2019-05-07T15:58:02.743Z,72.20
2019-05-07T16:00:36.421Z,73.10
2019-05-07T16:03:08.404Z,72.50
2019-05-07T16:05:42.348Z,72.60
2019-05-07T16:08:15.762Z,72.50
2019-05-07T16:10:48.078Z,72.70
2019-05-07T16:13:22.468Z,72.50
2019-05-07T16:15:54.430Z,72.60
2019-05-07T16:18:26.232Z,72.70
2019-05-07T16:20:58.601Z,72.90
2019-05-07T16:23:32.664Z,72.80
2019-05-07T16:26:05.220Z,72.80
2019-05-07T16:28:58.117Z,72.80
2019-05-07T16:31:30.140Z,72.80
2019-05-07T16:34:02.835Z,72.60
2019-05-07T16:36:35.142Z,72.30
2019-05-07T16:39:09.410Z,72.30
2019-05-07T16:41:42.272Z,72.50
2019-05-07T16:44:14.896Z,72.50
2019-05-07T16:46:47.067Z,72.50
2019-05-07T16:49:19.259Z,72.40
2019-05-07T16:51:52.423Z,72.10
2019-05-07T16:54:25.338Z,72.70
2019-05-07T16:56:58.622Z,72.10
2019-05-07T16:59:32.347Z,72.10
2019-05-07T17:02:05.799Z,72.30
2019-05-07T17:04:38.064Z,71.90
2019-05-07T17:07:13.329Z,72.30
2019-05-07T17:09:45.300Z,72.40
2019-05-07T17:12:19.043Z,72.10
2019-05-07T17:14:51.809Z,72.00
2019-05-07T17:17:23.864Z,72.10
2019-05-07T17:19:55.896Z,72.50
2019-05-07T17:22:28.143Z,72.30
2019-05-07T17:25:03.142Z,72.30
2019-05-07T17:27:35.346Z,72.10
2019-05-07T17:30:11.809Z,71.90
2019-05-07T17:32:43.932Z,72.10
2019-05-07T17:35:19.360Z,72.30
2019-05-07T17:38:05.908Z,72.40
2019-05-07T17:40:25.674Z,72.20
2019-05-07T17:42:58.270Z,72.10
2019-05-07T17:45:32.779Z,71.60
2019-05-07T17:48:04.397Z,71.50
2019-05-07T17:50:36.378Z,71.70
2019-05-07T17:53:08.132Z,71.60
2019-05-07T17:55:42.312Z,71.80
2019-05-07T17:58:14.568Z,71.60
2019-05-07T18:00:49.176Z,71.70
2019-05-07T18:03:22.460Z,71.50
2019-05-07T18:05:54.442Z,71.50
2019-05-07T18:08:28.247Z,71.50
2019-05-07T18:11:02.348Z,71.40
2019-05-07T18:13:34.953Z,71.50
2019-05-07T18:16:12.118Z,71.40
2019-05-07T18:18:46.576Z,71.40
2019-05-07T18:21:18.488Z,71.40
2019-05-07T18:23:51.785Z,71.30
2019-05-07T18:26:30.275Z,71.40
2019-05-07T18:28:57.654Z,71.20
2019-05-07T18:31:32.580Z,71.50
2019-05-07T18:34:05.357Z,71.50
2019-05-07T18:36:38.152Z,71.80
2019-05-07T18:39:11.084Z,73.10
2019-05-07T18:41:43.459Z,72.40
2019-05-07T18:44:16.276Z,73.00
2019-05-07T18:46:49.025Z,73.30
2019-05-07T18:49:20.946Z,73.40
2019-05-07T18:51:53.075Z,74.30
2019-05-07T18:54:30.976Z,73.50
2019-05-07T18:56:59.055Z,73.80
2019-05-07T18:59:33.788Z,73.60
2019-05-07T19:02:05.926Z,73.30
2019-05-07T19:04:37.845Z,73.50
2019-05-07T19:07:09.996Z,73.70
2019-05-07T19:09:42.468Z,73.50
2019-05-07T19:12:16.428Z,73.00
2019-05-07T19:14:48.715Z,73.30
2019-05-07T19:17:21.878Z,72.90
2019-05-07T19:19:54.431Z,72.90
2019-05-07T19:22:26.236Z,73.40
2019-05-07T19:25:03.001Z,73.90
2019-05-07T19:27:34.790Z,74.60
2019-05-07T19:30:12.645Z,73.90
2019-05-07T19:32:44.786Z,75.50
2019-05-07T19:35:17.323Z,75.00
2019-05-07T19:37:49.626Z,75.20
2019-05-07T19:40:24.765Z,75.70
2019-05-07T19:42:57.020Z,75.80
2019-05-07T19:45:29.332Z,76.10
2019-05-07T19:48:02.876Z,76.10
2019-05-07T19:50:35.790Z,76.10
2019-05-07T19:53:12.503Z,76.20
2019-05-07T19:55:52.675Z,76.60
2019-05-07T19:58:24.890Z,76.50
2019-05-07T20:00:57.550Z,76.30
2019-05-07T20:03:48.578Z,76.40
2019-05-07T20:06:23.326Z,76.60
2019-05-07T20:09:08.824Z,76.90
2019-05-07T20:11:34.323Z,77.30
2019-05-07T20:14:06.554Z,76.90
2019-05-07T20:16:38.950Z,77.20
2019-05-07T20:19:12.040Z,77.50
2019-05-07T20:21:45.609Z,77.60
2019-05-07T20:24:22.145Z,77.50
2019-05-07T20:26:54.519Z,77.50
2019-05-07T20:29:26.637Z,77.60
2019-05-07T20:31:58.676Z,77.50
2019-05-07T20:34:33.247Z,77.20
2019-05-07T20:37:05.390Z,77.20
2019-05-07T20:39:37.496Z,77.10
2019-05-07T20:42:09.618Z,77.20
2019-05-07T20:44:42.586Z,77.40
2019-05-07T20:47:15.185Z,77.20
2019-05-07T20:49:47.346Z,77.50
2019-05-07T20:52:19.264Z,77.60
2019-05-07T20:54:52.965Z,77.70
2019-05-07T20:57:26.465Z,77.90
2019-05-07T20:59:59.052Z,77.40
2019-05-07T21:02:44.896Z,78.10
2019-05-07T21:05:04.837Z,78.20
2019-05-07T21:07:36.878Z,78.10
2019-05-07T21:10:12.518Z,78.10
2019-05-07T21:12:44.016Z,78.20
2019-05-07T21:15:16.600Z,78.20
2019-05-07T21:17:48.734Z,78.30
2019-05-07T21:20:22.832Z,78.30
2019-05-07T21:22:54.846Z,78.10
2019-05-07T21:25:26.782Z,78.20
2019-05-07T21:27:58.992Z,78.10
2019-05-07T21:30:32.786Z,78.10
2019-05-07T21:33:04.972Z,78.20
2019-05-07T21:35:37.255Z,78.10
2019-05-07T21:38:09.372Z,78.20
2019-05-07T21:40:42.853Z,78.20
2019-05-07T21:43:15.653Z,78.50
2019-05-07T21:45:48.067Z,78.40
2019-05-07T21:48:22.304Z,78.60
2019-05-07T21:50:54.973Z,78.40
2019-05-07T21:53:28.384Z,78.60
2019-05-07T21:56:05.302Z,78.50
2019-05-07T21:58:37.519Z,78.50
2019-05-07T22:01:12.555Z,78.70
2019-05-07T22:03:47.545Z,78.80
2019-05-07T22:06:22.494Z,78.80
2019-05-07T22:08:54.982Z,78.80
2019-05-07T22:11:27.286Z,78.90
2019-05-07T22:14:01.943Z,79.60
2019-05-07T22:16:33.618Z,79.10
2019-05-07T22:19:06.546Z,79.20
2019-05-07T22:21:38.776Z,79.10
2019-05-07T22:24:14.674Z,79.20
2019-05-07T22:26:44.844Z,79.40
2019-05-07T22:29:16.989Z,79.70
2019-05-07T22:31:52.852Z,79.60
2019-05-07T22:34:25.769Z,79.80
2019-05-07T22:36:58.065Z,79.90
2019-05-07T22:39:32.574Z,79.90
2019-05-07T22:42:03.823Z,80.00
2019-05-07T22:44:36.008Z,78.90
2019-05-07T22:47:09.580Z,79.70
2019-05-07T22:49:42.004Z,80.30
2019-05-07T22:52:15.658Z,80.40
2019-05-07T22:54:48.195Z,80.10
2019-05-07T22:57:22.826Z,80.40
2019-05-07T22:59:55.643Z,80.40
2019-05-07T23:02:27.812Z,80.30
2019-05-07T23:05:02.907Z,80.20
2019-05-07T23:07:34.703Z,80.20
2019-05-07T23:10:08.759Z,80.00
2019-05-07T23:12:40.886Z,79.80
2019-05-07T23:15:16.968Z,79.70
2019-05-07T23:17:48.972Z,79.80
2019-05-07T23:20:24.109Z,79.70
2019-05-07T23:22:55.314Z,79.70
2019-05-07T23:25:27.449Z,79.90
2019-05-07T23:27:59.948Z,80.50
2019-05-07T23:30:33.069Z,79.80
2019-05-07T23:33:05.729Z,79.80
2019-05-07T23:35:38.108Z,79.60
2019-05-07T23:38:12.210Z,79.00
2019-05-07T23:40:46.035Z,79.60
2019-05-07T23:43:19.930Z,79.70
2019-05-07T23:45:52.639Z,79.50
2019-05-07T23:48:25.134Z,79.50
2019-05-07T23:50:56.960Z,79.30
2019-05-07T23:53:28.916Z,79.30
2019-05-07T23:56:02.902Z,79.30
2019-05-07T23:58:35.317Z,79.20
